Time;durP1;ratioP1;P1;durP2;ratioP2;P2;SDS_P1;SDS_P2;PMS_P1;PMS_P2;Temp;Humidity;BMP_temperature;BMP_pressure;BME280_temperature;BME280_humidity;BME280_pressure;Samples;Min_cycle;Max_cycle;Signal;HPM_P1;HPM_P2
2022/03/07 05:06:53;;;;;;;9.18;2.70;;;;;;;0.65;49.36;100374.44;1748930;80;21035;-56
2022/03/07 05:09:20;;;;;;;6.50;2.42;;;;;;;0.63;49.43;100368.03;1742288;79;22237;-57
2022/03/07 05:11:47;;;;;;;6.28;1.98;;;;;;;0.63;49.35;100365.90;1743206;80;21538;-56
2022/03/07 05:14:15;;;;;;;6.00;2.67;;;;;;;0.66;49.43;100368.38;1742252;80;20992;-55
2022/03/07 05:16:43;;;;;;;5.28;2.70;;;;;;;0.70;49.20;100365.58;1760352;79;21083;-59
2022/03/07 05:19:10;;;;;;;7.25;2.85;;;;;;;0.73;49.17;100365.92;1734589;80;21563;-55
2022/03/07 05:21:37;;;;;;;6.95;3.40;;;;;;;0.76;48.97;100368.40;1740852;79;21128;-56
2022/03/07 05:24:05;;;;;;;5.75;2.52;;;;;;;0.76;49.14;100356.74;1757102;80;21090;-54
2022/03/07 05:26:32;;;;;;;4.75;2.02;;;;;;;0.83;49.03;100359.47;1767541;78;21129;-56
2022/03/07 05:29:00;;;;;;;5.35;2.62;;;;;;;0.87;48.93;100350.66;1761264;78;22232;-57
2022/03/07 05:31:27;;;;;;;6.67;2.60;;;;;;;0.96;49.00;100356.38;1753283;80;21062;-56
2022/03/07 05:33:54;;;;;;;4.53;2.20;;;;;;;1.01;48.95;100351.84;1766430;78;21046;-56
2022/03/07 05:36:21;;;;;;;4.50;2.10;;;;;;;1.09;48.70;100355.84;1764622;79;21042;-58
2022/03/07 05:38:48;;;;;;;5.10;2.42;;;;;;;1.13;48.65;100355.69;1762543;79;21000;-56
2022/03/07 05:41:16;;;;;;;5.70;2.70;;;;;;;1.17;48.22;100359.39;1765940;80;22197;-55
2022/03/07 05:43:42;;;;;;;4.97;2.40;;;;;;;1.14;48.22;100352.20;1773953;78;21034;-56
2022/03/07 05:46:09;;;;;;;5.70;2.50;;;;;;;1.16;48.36;100349.08;1758975;78;21542;-56
2022/03/07 05:48:37;;;;;;;6.58;2.50;;;;;;;1.17;48.26;100343.83;1775099;79;21012;-56
2022/03/07 05:51:04;;;;;;;5.97;2.40;;;;;;;1.18;48.34;100336.46;1754532;78;21702;-56
2022/03/07 05:53:30;;;;;;;5.47;2.40;;;;;;;1.19;48.40;100338.13;1768691;78;21802;-57
2022/03/07 05:55:57;;;;;;;5.53;2.33;;;;;;;1.23;48.45;100338.41;1767937;79;21070;-57
2022/03/07 05:58:24;;;;;;;6.85;2.70;;;;;;;1.26;48.14;100336.13;1770774;79;21097;-57
2022/03/07 06:00:51;;;;;;;7.10;3.05;;;;;;;1.27;48.12;100337.36;1781536;78;21054;-55
2022/03/07 06:03:18;;;;;;;8.13;2.85;;;;;;;1.26;48.33;100333.53;1775626;78;21054;-57
2022/03/07 06:05:46;;;;;;;5.78;2.47;;;;;;;1.29;48.12;100331.67;1761542;79;21137;-56
2022/03/07 06:08:13;;;;;;;6.33;2.85;;;;;;;1.28;48.25;100327.85;1755876;79;21153;-56
2022/03/07 06:10:41;;;;;;;5.00;2.62;;;;;;;1.31;48.23;100323.80;1740824;80;21590;-57
2022/03/07 06:13:10;;;;;;;6.00;2.27;;;;;;;1.33;48.24;100325.91;1741759;80;21747;-57
2022/03/07 06:15:43;;;;;;;7.10;2.62;;;;;;;1.38;48.32;100319.20;1769070;78;21092;-57
2022/03/07 06:18:08;;;;;;;6.72;3.15;;;;;;;1.39;48.12;100320.90;1772394;79;21526;-56
2022/03/07 06:20:35;;;;;;;6.62;2.72;;;;;;;1.37;48.21;100320.12;1778316;78;21046;-56
2022/03/07 06:23:04;;;;;;;8.23;3.37;;;;;;;1.35;48.20;100315.01;1752560;79;21081;-56
2022/03/07 06:25:33;;;;;;;7.70;3.52;;;;;;;1.35;48.24;100318.06;1762286;80;21036;-56
2022/03/07 06:28:01;;;;;;;6.78;3.22;;;;;;;1.33;48.39;100310.78;1766148;79;21113;-56
2022/03/07 06:30:33;;;;;;;9.08;2.98;;;;;;;1.33;48.40;100308.19;1777583;78;21265;-58
2022/03/07 06:33:00;;;;;;;6.40;2.98;;;;;;;1.33;48.17;100307.75;1737100;79;21090;-57
2022/03/07 06:35:27;;;;;;;5.35;2.70;;;;;;;1.32;48.30;100307.36;1760238;79;21192;-57
2022/03/07 06:37:54;;;;;;;6.75;2.92;;;;;;;1.29;48.30;100308.34;1741323;79;21039;-56
2022/03/07 06:40:22;;;;;;;5.58;2.55;;;;;;;1.27;48.42;100307.55;1772815;80;21571;-56
2022/03/07 06:42:50;;;;;;;7.30;3.02;;;;;;;1.28;48.48;100310.54;1737539;80;21056;-56
2022/03/07 06:45:17;;;;;;;6.55;3.15;;;;;;;1.27;48.43;100307.55;1739051;81;21007;-55
2022/03/07 06:47:46;;;;;;;7.22;3.10;;;;;;;1.29;48.61;100307.05;1748877;79;21053;-57
2022/03/07 06:50:13;;;;;;;6.30;2.37;;;;;;;1.34;48.40;100301.64;1749502;80;21172;-58
2022/03/07 06:52:40;;;;;;;7.45;3.80;;;;;;;1.36;48.48;100301.58;1761336;79;21109;-56
2022/03/07 06:55:08;;;;;;;5.50;2.42;;;;;;;1.38;48.48;100301.05;1778624;79;21117;-57
2022/03/07 06:57:36;;;;;;;7.65;3.33;;;;;;;1.43;48.36;100302.56;1744977;80;21093;-58
2022/03/07 07:00:08;;;;;;;8.70;4.17;;;;;;;1.46;48.29;100303.73;1771131;79;21053;-57
2022/03/07 07:02:39;;;;;;;8.80;3.87;;;;;;;1.53;48.16;100295.23;1775743;78;21041;-57
2022/03/07 08:58:10;;;;;;;12.98;6.20;;;;;;;2.75;45.29;100246.24;1762926;79;21040;-58
2022/03/07 09:00:37;;;;;;;11.60;5.95;;;;;;;2.83;44.88;100251.54;1779604;78;21633;-58
2022/03/07 09:03:06;;;;;;;8.25;4.60;;;;;;;2.85;44.66;100249.70;1767716;80;21007;-57
2022/03/07 09:05:35;;;;;;;8.63;5.08;;;;;;;2.88;44.81;100245.19;1772805;78;21017;-60
2022/03/07 09:08:03;;;;;;;8.58;5.28;;;;;;;2.91;44.48;100245.50;1771090;79;21081;-66
2022/03/07 09:10:30;;;;;;;9.68;5.20;;;;;;;2.94;44.46;100245.33;1775085;78;21190;-61
2022/03/07 09:12:57;;;;;;;10.53;5.17;;;;;;;2.99;44.36;100248.53;1779539;78;21116;-61
2022/03/07 09:15:23;;;;;;;9.45;5.33;;;;;;;3.07;44.23;100242.48;1776377;79;21062;-69
2022/03/07 09:17:50;;;;;;;8.68;5.35;;;;;;;3.18;44.53;100237.19;1773347;78;21133;-59
2022/03/07 09:20:19;;;;;;;14.90;6.00;;;;;;;3.29;43.24;100233.58;1769300;79;21051;-60
2022/03/07 09:22:46;;;;;;;10.23;5.60;;;;;;;3.38;42.81;100245.26;1773047;79;22117;-60
2022/03/07 09:25:14;;;;;;;10.60;5.50;;;;;;;3.39;42.52;100242.58;1757460;79;21004;-61
2022/03/07 09:27:42;;;;;;;9.75;5.30;;;;;;;3.44;43.36;100242.34;1765088;80;21101;-58
2022/03/07 09:30:10;;;;;;;9.08;5.53;;;;;;;3.51;43.09;100239.35;1762567;79;21484;-57
2022/03/07 09:32:37;;;;;;;9.68;4.28;;;;;;;3.56;42.77;100245.59;1764888;79;21613;-57
2022/03/07 09:35:05;;;;;;;8.83;3.75;;;;;;;3.57;41.18;100234.74;1776120;78;21255;-60
2022/03/07 09:37:31;;;;;;;10.03;4.25;;;;;;;3.51;40.62;100247.16;1769256;80;21047;-58
2022/03/07 09:39:59;;;;;;;7.10;4.30;;;;;;;3.47;41.02;100241.72;1774879;79;21592;-56
2022/03/07 09:42:26;;;;;;;7.90;3.90;;;;;;;3.41;40.76;100238.59;1778385;79;21564;-55
2022/03/07 09:44:54;;;;;;;8.43;4.00;;;;;;;3.32;40.46;100230.83;1776979;79;21038;-55
2022/03/07 09:47:24;;;;;;;7.55;3.83;;;;;;;3.25;40.81;100226.41;1749530;80;21871;-55
2022/03/07 09:49:51;;;;;;;9.93;4.25;;;;;;;3.13;41.12;100235.68;1765279;78;21325;-57
2022/03/07 09:52:18;;;;;;;9.03;4.30;;;;;;;3.11;41.40;100232.77;1777207;78;21041;-57
2022/03/07 09:54:45;;;;;;;8.20;4.60;;;;;;;3.11;41.61;100236.66;1767806;79;21157;-55
2022/03/07 09:57:13;;;;;;;8.18;5.08;;;;;;;3.11;41.59;100229.73;1777116;78;21529;-56
2022/03/07 09:59:41;;;;;;;9.73;4.22;;;;;;;3.10;41.41;100217.63;1745183;79;21208;-55
2022/03/07 10:02:12;;;;;;;8.75;4.45;;;;;;;3.00;41.65;100221.62;1738446;80;22372;-56
2022/03/07 10:04:43;;;;;;;10.30;4.78;;;;;;;3.00;41.89;100219.50;1735348;80;21104;-56
2022/03/07 10:07:10;;;;;;;8.15;4.03;;;;;;;2.93;41.67;100222.87;1773748;79;21050;-55
2022/03/07 10:09:37;;;;;;;9.75;4.42;;;;;;;2.98;42.12;100223.00;1777274;78;22563;-56
2022/03/07 10:12:05;;;;;;;9.90;4.10;;;;;;;3.02;42.54;100219.78;1779092;78;21133;-56
2022/03/07 10:14:42;;;;;;;9.00;3.98;;;;;;;3.10;42.30;100226.73;1776432;78;21042;-56
2022/03/07 10:17:25;;;;;;;13.10;4.30;;;;;;;3.14;41.88;100220.91;1768541;79;21572;-57
2022/03/07 10:19:54;;;;;;;8.05;4.87;;;;;;;3.20;41.11;100212.80;1762567;79;21058;-55
2022/03/07 10:22:25;;;;;;;6.15;3.70;;;;;;;3.23;41.01;100209.19;1755349;80;21062;-57
2022/03/07 10:25:08;;;;;;;8.83;4.60;;;;;;;3.30;40.89;100210.56;1777113;79;21283;-57
2022/03/07 10:27:40;;;;;;;9.50;4.15;;;;;;;3.34;41.39;100204.27;1776057;80;21082;-58
2022/03/07 10:30:16;;;;;;;7.75;3.83;;;;;;;3.38;41.63;100208.41;1772057;78;21090;-55
2022/03/07 10:32:44;;;;;;;8.03;3.67;;;;;;;3.39;40.34;100203.56;1775135;78;21128;-58
2022/03/07 10:35:27;;;;;;;7.85;3.60;;;;;;;3.40;40.11;100199.22;1776105;78;21137;-58
2022/03/07 10:38:11;;;;;;;8.60;4.08;;;;;;;3.41;40.82;100195.21;1775471;80;21230;-56
2022/03/07 10:40:41;;;;;;;7.90;3.52;;;;;;;3.44;40.24;100191.16;1773644;78;21147;-57
2022/03/07 10:43:09;;;;;;;8.15;3.50;;;;;;;3.47;40.02;100191.46;1770624;78;21513;-57
2022/03/07 10:45:57;;;;;;;7.60;4.28;;;;;;;3.50;40.00;100191.30;1771919;79;21097;-57
2022/03/07 10:48:27;;;;;;;6.72;3.60;;;;;;;3.48;40.32;100187.92;1772666;79;21109;-57
2022/03/07 10:50:57;;;;;;;7.75;3.55;;;;;;;3.44;40.72;100185.95;1772709;78;21398;-58
2022/03/07 10:53:25;;;;;;;8.35;4.00;;;;;;;3.41;40.30;100181.38;1765716;80;21058;-57
